createdAt,value
2023-01-01T00:01:29.610Z,14.05
2023-01-01T00:06:33.043Z,14.04
2023-01-01T00:11:36.605Z,14.02
2023-01-01T00:16:40.281Z,14.02
2023-01-01T00:21:43.572Z,14.07
2023-01-01T00:26:46.694Z,14.10
2023-01-01T00:31:50.444Z,14.06
2023-01-01T00:36:53.686Z,14.04
2023-01-01T00:41:56.833Z,14.02
2023-01-01T00:47:00.121Z,14.05
2023-01-01T00:52:03.328Z,14.09
2023-01-01T00:57:06.450Z,14.14
2023-01-01T01:02:09.728Z,14.15
2023-01-01T01:07:12.915Z,14.18
2023-01-01T01:12:18.176Z,14.20
2023-01-01T01:17:22.421Z,14.20
2023-01-01T01:22:29.121Z,14.20
2023-01-01T01:27:32.900Z,14.25
2023-01-01T01:32:36.246Z,14.30
2023-01-01T01:37:39.489Z,14.31
2023-01-01T01:42:46.274Z,14.33
2023-01-01T01:47:50.015Z,14.34
2023-01-01T01:53:02.452Z,14.33
2023-01-01T01:58:09.637Z,14.33
2023-01-01T02:03:18.997Z,14.32
2023-01-01T02:08:23.363Z,14.32
2023-01-01T02:13:26.663Z,14.33
2023-01-01T02:18:59.523Z,14.34
2023-01-01T02:24:24.069Z,14.33
2023-01-01T02:29:33.295Z,14.34
2023-01-01T02:34:47.029Z,14.34
2023-01-01T02:39:59.360Z,14.34
2023-01-01T02:45:03.255Z,14.38
2023-01-01T02:50:35.435Z,14.40
2023-01-01T02:55:46.270Z,14.35
2023-01-01T03:00:54.387Z,14.33
2023-01-01T03:06:25.052Z,14.35
2023-01-01T03:11:52.592Z,14.35
2023-01-01T03:17:22.436Z,14.35
2023-01-01T03:22:31.789Z,14.37
2023-01-01T03:27:41.476Z,14.37
2023-01-01T03:33:01.663Z,14.41
2023-01-01T03:38:10.915Z,14.42
2023-01-01T03:43:21.144Z,14.41
2023-01-01T03:48:24.340Z,14.41
2023-01-01T03:53:40.307Z,14.41
2023-01-01T03:58:53.003Z,14.40
2023-01-01T04:03:56.481Z,14.40
2023-01-01T04:09:01.863Z,14.43
2023-01-01T04:14:05.061Z,14.50
2023-01-01T04:19:08.428Z,14.55
2023-01-01T04:24:11.683Z,14.56
2023-01-01T04:29:14.940Z,14.58
2023-01-01T04:34:18.382Z,14.57
2023-01-01T04:39:21.549Z,14.54
2023-01-01T04:44:24.645Z,14.51
2023-01-01T04:49:27.908Z,14.49
2023-01-01T04:54:31.526Z,14.48
2023-01-01T04:59:34.647Z,14.52
2023-01-01T05:04:37.774Z,14.60
2023-01-01T05:09:40.936Z,14.63
2023-01-01T05:14:44.040Z,14.66
2023-01-01T05:19:47.233Z,14.68
2023-01-01T05:24:50.409Z,14.70
2023-01-01T05:29:53.579Z,14.70
2023-01-01T05:34:56.683Z,14.67
2023-01-01T05:39:59.824Z,14.63
2023-01-01T05:45:03.992Z,14.60
2023-01-01T05:55:10.438Z,14.59
2023-01-01T06:00:14.289Z,14.61
2023-01-01T06:05:17.940Z,14.62
2023-01-01T06:10:23.003Z,14.59
2023-01-01T06:15:27.300Z,14.57
2023-01-01T06:20:31.173Z,14.52
2023-01-01T06:25:35.138Z,14.44
2023-01-01T06:30:38.832Z,14.37
2023-01-01T06:35:43.055Z,14.29
2023-01-01T06:40:56.238Z,14.24
2023-01-01T06:46:16.420Z,14.24
2023-01-01T06:51:22.151Z,14.22
2023-01-01T06:56:25.861Z,14.20
2023-01-01T07:01:31.871Z,14.18
2023-01-01T07:06:35.647Z,14.17
2023-01-01T07:11:38.862Z,14.12
2023-01-01T07:16:42.349Z,14.10
2023-01-01T07:21:51.554Z,14.15
2023-01-01T07:26:54.620Z,14.15
2023-01-01T07:31:57.771Z,14.16
2023-01-01T07:37:00.854Z,14.19
2023-01-01T07:42:10.709Z,14.26
2023-01-01T07:47:33.162Z,14.34
2023-01-01T07:52:36.263Z,14.45
2023-01-01T07:57:39.496Z,14.56
2023-01-01T08:02:42.750Z,14.65
2023-01-01T08:07:47.952Z,14.73
2023-01-01T08:12:51.184Z,14.76
2023-01-01T08:17:58.999Z,14.81
2023-01-01T08:23:07.094Z,14.83
2023-01-01T08:28:10.661Z,14.87
2023-01-01T08:33:13.868Z,14.90
2023-01-01T08:38:17.318Z,14.96
2023-01-01T08:43:21.466Z,15.00
2023-01-01T08:48:30.766Z,15.07
2023-01-01T08:53:34.303Z,15.14
2023-01-01T08:58:39.587Z,15.19
2023-01-01T09:03:42.805Z,15.30
2023-01-01T09:08:45.947Z,15.46
2023-01-01T09:13:49.147Z,15.63
2023-01-01T09:18:53.489Z,15.82
2023-01-01T09:23:56.583Z,16.01
2023-01-01T09:28:59.770Z,16.18
2023-01-01T09:34:02.882Z,16.37
2023-01-01T09:39:06.737Z,16.53
2023-01-01T09:44:31.177Z,16.71
2023-01-01T09:49:43.605Z,16.94
2023-01-01T09:54:58.950Z,17.10
2023-01-01T10:00:02.226Z,17.20
2023-01-01T10:05:25.191Z,17.36
2023-01-01T10:10:28.200Z,17.51
2023-01-01T10:15:44.594Z,17.65
2023-01-01T10:21:14.382Z,17.69
2023-01-01T10:26:23.470Z,17.64
2023-01-01T10:31:49.975Z,17.57
2023-01-01T10:36:59.063Z,17.52
2023-01-01T10:42:03.594Z,17.51
2023-01-01T10:47:27.178Z,17.55
2023-01-01T10:52:39.932Z,17.65
2023-01-01T10:57:44.101Z,17.76
2023-01-01T11:02:47.417Z,17.85
2023-01-01T11:08:02.931Z,17.85
2023-01-01T11:13:20.564Z,17.86
2023-01-01T11:18:29.237Z,17.87
2023-01-01T11:23:36.042Z,17.94
2023-01-01T11:28:40.365Z,18.03
2023-01-01T11:33:53.186Z,18.07
2023-01-01T11:39:26.665Z,18.09
2023-01-01T11:44:39.108Z,18.08
2023-01-01T11:49:43.367Z,18.08
2023-01-01T11:54:46.926Z,18.07
2023-01-01T11:59:56.278Z,18.06
2023-01-01T12:05:17.301Z,18.04
2023-01-01T12:10:27.795Z,17.99
2023-01-01T12:15:46.694Z,17.95
2023-01-01T12:20:57.655Z,17.92
2023-01-01T12:26:24.128Z,17.88
2023-01-01T12:31:53.393Z,17.87
2023-01-01T12:37:18.344Z,17.88
2023-01-01T12:42:44.749Z,17.85
2023-01-01T12:47:59.868Z,17.79
2023-01-01T12:53:30.977Z,17.73
2023-01-01T12:58:40.777Z,17.67
2023-01-01T13:03:54.533Z,17.60
2023-01-01T13:09:16.391Z,17.53
2023-01-01T13:14:19.643Z,17.47
2023-01-01T13:19:31.938Z,17.41
2023-01-01T13:24:35.262Z,17.35
2023-01-01T13:29:44.679Z,17.31
2023-01-01T13:35:01.940Z,17.26
2023-01-01T13:40:30.039Z,17.19
2023-01-01T13:57:43.594Z,16.98
2023-01-01T14:03:03.075Z,16.88
2023-01-01T14:08:12.995Z,16.78
2023-01-01T14:13:18.084Z,16.69
2023-01-01T14:18:36.228Z,16.61
2023-01-01T14:23:43.218Z,16.54
2023-01-01T14:28:47.106Z,16.46
2023-01-01T14:33:50.479Z,16.39
2023-01-01T14:38:58.145Z,16.33
2023-01-01T14:44:14.725Z,16.29
2023-01-01T14:49:22.475Z,16.24
2023-01-01T14:54:34.343Z,16.18
2023-01-01T14:59:47.016Z,16.11
2023-01-01T15:04:50.189Z,16.02
2023-01-01T15:09:54.262Z,15.93
2023-01-01T15:14:58.390Z,15.85
2023-01-01T15:20:22.113Z,15.77
2023-01-01T15:25:25.502Z,15.67
2023-01-01T15:30:33.835Z,15.59
2023-01-01T15:35:38.347Z,15.51
2023-01-01T15:40:51.085Z,15.43
2023-01-01T15:46:00.335Z,15.37
2023-01-01T15:51:12.854Z,15.34
2023-01-01T15:56:16.578Z,15.33
2023-01-01T16:01:26.539Z,15.32
2023-01-01T16:06:30.396Z,15.29
2023-01-01T16:11:33.647Z,15.26
2023-01-01T16:16:39.895Z,15.21
2023-01-01T16:21:43.130Z,15.18
2023-01-01T16:26:47.659Z,15.15
2023-01-01T16:31:51.878Z,15.12
2023-01-01T16:36:54.990Z,15.09
2023-01-01T16:41:58.676Z,15.06
2023-01-01T16:47:01.895Z,15.01
2023-01-01T16:52:05.702Z,14.96
2023-01-01T16:57:09.312Z,14.93
2023-01-01T17:02:12.489Z,14.88
2023-01-01T17:07:15.834Z,14.82
2023-01-01T17:12:18.964Z,14.76
2023-01-01T17:17:22.124Z,14.69
2023-01-01T17:22:29.230Z,14.65
2023-01-01T17:27:36.247Z,14.60
2023-01-01T17:32:39.466Z,14.54
2023-01-01T17:37:43.722Z,14.47
2023-01-01T17:42:46.872Z,14.39
2023-01-01T17:47:50.037Z,14.37
2023-01-01T17:52:53.321Z,14.38
2023-01-01T17:57:56.548Z,14.38
2023-01-01T18:02:59.818Z,14.38
2023-01-01T18:08:03.629Z,14.34
2023-01-01T18:13:06.879Z,14.27
2023-01-01T18:18:10.084Z,14.22
2023-01-01T18:23:13.357Z,14.17
2023-01-01T18:28:16.559Z,14.12
2023-01-01T18:33:19.767Z,14.09
2023-01-01T18:38:23.332Z,14.07
2023-01-01T18:43:26.577Z,14.04
2023-01-01T18:48:29.735Z,14.03
2023-01-01T18:53:32.984Z,14.06
2023-01-01T18:58:36.159Z,14.10
2023-01-01T19:03:41.539Z,14.08
2023-01-01T19:08:45.125Z,14.02
2023-01-01T19:13:49.981Z,13.96
2023-01-01T19:18:53.346Z,13.88
2023-01-01T19:24:02.348Z,13.81
2023-01-01T19:29:21.912Z,13.74
2023-01-01T19:34:25.624Z,13.67
2023-01-01T19:39:29.480Z,13.59
2023-01-01T19:44:34.805Z,13.55
2023-01-01T19:49:38.183Z,13.58
2023-01-01T19:54:41.364Z,13.61
2023-01-01T19:59:44.514Z,13.61
2023-01-01T20:04:47.770Z,13.55
2023-01-01T20:09:54.159Z,13.49
2023-01-01T20:14:57.329Z,13.46
2023-01-01T20:20:00.590Z,13.39
2023-01-01T20:25:04.356Z,13.32
2023-01-01T20:30:08.205Z,13.27
2023-01-01T20:35:11.446Z,13.26
2023-01-01T20:40:14.637Z,13.30
2023-01-01T20:45:17.992Z,13.34
2023-01-01T20:50:21.171Z,13.36
2023-01-01T20:55:24.366Z,13.34
2023-01-01T21:00:27.491Z,13.35
2023-01-01T21:05:31.816Z,13.29
2023-01-01T21:10:34.997Z,13.21
2023-01-01T21:15:39.150Z,13.14
2023-01-01T21:20:46.441Z,13.07
2023-01-01T21:25:52.109Z,13.06
2023-01-01T21:31:00.112Z,13.11
2023-01-01T21:36:16.224Z,13.21
2023-01-01T21:41:26.222Z,13.19
2023-01-01T21:46:34.616Z,13.05
2023-01-01T21:51:42.456Z,12.89
2023-01-01T21:56:52.824Z,12.75
2023-01-01T22:02:30.895Z,12.61
2023-01-01T22:13:01.933Z,12.52
2023-01-01T22:18:07.651Z,12.56
2023-01-01T22:23:19.917Z,12.57
2023-01-01T22:28:30.563Z,12.54
2023-01-01T22:33:38.429Z,12.46
2023-01-01T22:38:41.691Z,12.35
2023-01-01T22:43:46.965Z,12.31
2023-01-01T22:48:57.551Z,12.30
2023-01-01T22:54:01.244Z,12.27
2023-01-01T22:59:04.447Z,12.29
2023-01-01T23:04:07.580Z,12.25
2023-01-01T23:09:12.274Z,12.17
2023-01-01T23:14:38.615Z,12.12
2023-01-01T23:19:42.457Z,12.04
2023-01-01T23:24:46.522Z,11.94
2023-01-01T23:29:52.896Z,11.90
2023-01-01T23:34:56.724Z,11.90
2023-01-01T23:39:59.831Z,11.90
2023-01-01T23:45:03.062Z,11.85
2023-01-01T23:50:07.069Z,11.77
2023-01-01T23:55:10.516Z,11.73
